sensor_id;sensor_type;location;lat;lon;timestamp;pressure;altitude;pressure_sealevel;temperature;humidity
53719;BME280;39616;48.872;9.390;2023-03-01T00:00:28;99135.47;;;-3.39;91.61
53719;BME280;39616;48.872;9.390;2023-03-01T00:02:58;99139.59;;;-3.36;90.84
53719;BME280;39616;48.872;9.390;2023-03-01T00:05:29;99134.94;;;-3.34;91.31
53719;BME280;39616;48.872;9.390;2023-03-01T00:07:59;99139.47;;;-3.28;91.34
53719;BME280;39616;48.872;9.390;2023-03-01T00:10:29;99125.03;;;-3.26;90.79
53719;BME280;39616;48.872;9.390;2023-03-01T00:13:00;99129.19;;;-3.38;89.38
53719;BME280;39616;48.872;9.390;2023-03-01T00:15:31;99131.03;;;-3.38;90.48
53719;BME280;39616;48.872;9.390;2023-03-01T00:18:01;99130.94;;;-3.45;90.57
53719;BME280;39616;48.872;9.390;2023-03-01T00:20:32;99133.41;;;-3.44;90.75
53719;BME280;39616;48.872;9.390;2023-03-01T00:23:02;99137.63;;;-3.49;90.34
53719;BME280;39616;48.872;9.390;2023-03-01T00:25:32;99132.84;;;-3.54;91.49
53719;BME280;39616;48.872;9.390;2023-03-01T00:28:03;99136.72;;;-3.56;91.21
53719;BME280;39616;48.872;9.390;2023-03-01T00:30:33;99146.31;;;-3.55;92.40
53719;BME280;39616;48.872;9.390;2023-03-01T00:33:03;99145.50;;;-3.56;90.75
53719;BME280;39616;48.872;9.390;2023-03-01T00:35:34;99141.47;;;-3.67;91.43
53719;BME280;39616;48.872;9.390;2023-03-01T00:38:05;99138.75;;;-3.73;92.17
53719;BME280;39616;48.872;9.390;2023-03-01T00:40:36;99135.63;;;-3.77;93.16
53719;BME280;39616;48.872;9.390;2023-03-01T00:43:06;99130.34;;;-3.77;92.63
53719;BME280;39616;48.872;9.390;2023-03-01T00:45:36;99129.31;;;-3.76;92.80
53719;BME280;39616;48.872;9.390;2023-03-01T00:48:07;99133.00;;;-3.77;92.21
53719;BME280;39616;48.872;9.390;2023-03-01T00:50:37;99124.22;;;-3.77;92.44
53719;BME280;39616;48.872;9.390;2023-03-01T00:53:08;99132.38;;;-3.79;92.05
53719;BME280;39616;48.872;9.390;2023-03-01T00:55:38;99133.19;;;-3.78;92.60
53719;BME280;39616;48.872;9.390;2023-03-01T00:58:08;99132.53;;;-3.80;91.71
53719;BME280;39616;48.872;9.390;2023-03-01T01:00:38;99138.66;;;-3.80;93.19
53719;BME280;39616;48.872;9.390;2023-03-01T01:03:09;99136.47;;;-3.76;93.10
53719;BME280;39616;48.872;9.390;2023-03-01T01:05:39;99128.72;;;-3.78;93.77
53719;BME280;39616;48.872;9.390;2023-03-01T01:08:09;99131.97;;;-3.76;93.82
53719;BME280;39616;48.872;9.390;2023-03-01T01:10:39;99133.06;;;-3.70;93.16
53719;BME280;39616;48.872;9.390;2023-03-01T01:13:10;99137.66;;;-3.64;92.56
53719;BME280;39616;48.872;9.390;2023-03-01T01:15:41;99130.03;;;-3.52;92.23
53719;BME280;39616;48.872;9.390;2023-03-01T01:18:11;99126.34;;;-3.36;91.17
53719;BME280;39616;48.872;9.390;2023-03-01T01:20:41;99127.22;;;-3.29;90.37
53719;BME280;39616;48.872;9.390;2023-03-01T01:23:11;99123.03;;;-3.24;90.26
53719;BME280;39616;48.872;9.390;2023-03-01T01:25:42;99121.50;;;-3.11;89.71
53719;BME280;39616;48.872;9.390;2023-03-01T01:28:12;99117.69;;;-3.02;89.44
53719;BME280;39616;48.872;9.390;2023-03-01T01:30:42;99111.28;;;-2.93;88.93
53719;BME280;39616;48.872;9.390;2023-03-01T01:33:13;99104.81;;;-2.84;88.38
53719;BME280;39616;48.872;9.390;2023-03-01T01:35:45;99098.16;;;-2.73;87.84
53719;BME280;39616;48.872;9.390;2023-03-01T01:38:15;99095.78;;;-2.68;87.35
53719;BME280;39616;48.872;9.390;2023-03-01T01:40:46;99089.66;;;-2.62;86.87
53719;BME280;39616;48.872;9.390;2023-03-01T01:43:26;99089.28;;;-2.59;86.48
53719;BME280;39616;48.872;9.390;2023-03-01T01:46:01;99088.97;;;-2.49;86.50
53719;BME280;39616;48.872;9.390;2023-03-01T01:48:38;99093.69;;;-2.45;86.05
53719;BME280;39616;48.872;9.390;2023-03-01T01:51:16;99075.97;;;-2.37;85.47
53719;BME280;39616;48.872;9.390;2023-03-01T01:53:51;99081.53;;;-2.26;85.21
53719;BME280;39616;48.872;9.390;2023-03-01T01:56:24;99078.13;;;-2.20;84.90
53719;BME280;39616;48.872;9.390;2023-03-01T01:58:56;99084.47;;;-2.14;84.63
53719;BME280;39616;48.872;9.390;2023-03-01T02:01:27;99080.00;;;-2.07;84.26
53719;BME280;39616;48.872;9.390;2023-03-01T02:03:57;99071.06;;;-1.99;84.07
53719;BME280;39616;48.872;9.390;2023-03-01T02:06:32;99065.16;;;-1.95;83.63
53719;BME280;39616;48.872;9.390;2023-03-01T02:09:11;99059.44;;;-1.91;83.40
53719;BME280;39616;48.872;9.390;2023-03-01T02:11:43;99063.38;;;-1.87;83.34
53719;BME280;39616;48.872;9.390;2023-03-01T02:14:15;99060.50;;;-1.86;83.29
53719;BME280;39616;48.872;9.390;2023-03-01T02:16:46;99059.69;;;-1.86;82.84
53719;BME280;39616;48.872;9.390;2023-03-01T02:19:28;99061.75;;;-1.82;82.68
53719;BME280;39616;48.872;9.390;2023-03-01T02:22:25;99053.38;;;-1.79;82.47
53719;BME280;39616;48.872;9.390;2023-03-01T02:30:21;99039.06;;;-1.71;82.19
53719;BME280;39616;48.872;9.390;2023-03-01T02:32:53;99042.94;;;-1.74;82.07
53719;BME280;39616;48.872;9.390;2023-03-01T02:35:27;99035.78;;;-1.73;82.15
53719;BME280;39616;48.872;9.390;2023-03-01T02:37:58;99032.72;;;-1.70;82.19
53719;BME280;39616;48.872;9.390;2023-03-01T02:40:31;99030.28;;;-1.72;81.96
53719;BME280;39616;48.872;9.390;2023-03-01T02:43:04;99027.63;;;-1.72;81.92
53719;BME280;39616;48.872;9.390;2023-03-01T02:45:43;99022.09;;;-1.70;81.81
53719;BME280;39616;48.872;9.390;2023-03-01T02:48:18;99020.69;;;-1.73;81.54
53719;BME280;39616;48.872;9.390;2023-03-01T02:51:17;99019.44;;;-1.70;81.67
53719;BME280;39616;48.872;9.390;2023-03-01T02:56:45;99021.50;;;-1.65;81.41
53719;BME280;39616;48.872;9.390;2023-03-01T02:59:22;99015.56;;;-1.67;81.25
53719;BME280;39616;48.872;9.390;2023-03-01T03:01:53;99020.47;;;-1.71;81.54
53719;BME280;39616;48.872;9.390;2023-03-01T03:04:23;99017.16;;;-1.73;81.53
53719;BME280;39616;48.872;9.390;2023-03-01T03:06:54;99013.28;;;-1.71;81.64
53719;BME280;39616;48.872;9.390;2023-03-01T03:09:24;99013.50;;;-1.72;81.62
53719;BME280;39616;48.872;9.390;2023-03-01T03:11:54;99006.75;;;-1.75;81.79
53719;BME280;39616;48.872;9.390;2023-03-01T03:14:25;99002.03;;;-1.79;81.68
53719;BME280;39616;48.872;9.390;2023-03-01T03:16:55;99002.63;;;-1.77;81.69
53719;BME280;39616;48.872;9.390;2023-03-01T03:19:25;98996.94;;;-1.74;81.90
53719;BME280;39616;48.872;9.390;2023-03-01T03:21:56;98999.38;;;-1.79;81.58
53719;BME280;39616;48.872;9.390;2023-03-01T03:24:26;98999.16;;;-1.78;81.77
53719;BME280;39616;48.872;9.390;2023-03-01T03:26:58;99001.44;;;-1.75;81.84
53719;BME280;39616;48.872;9.390;2023-03-01T03:29:28;99001.22;;;-1.80;81.56
53719;BME280;39616;48.872;9.390;2023-03-01T03:31:59;99004.09;;;-1.68;81.97
53719;BME280;39616;48.872;9.390;2023-03-01T03:34:30;99001.03;;;-1.72;81.05
53719;BME280;39616;48.872;9.390;2023-03-01T03:37:00;98996.09;;;-1.75;81.13
53719;BME280;39616;48.872;9.390;2023-03-01T03:39:30;99000.22;;;-1.72;81.19
53719;BME280;39616;48.872;9.390;2023-03-01T03:42:04;99001.63;;;-1.70;81.13
53719;BME280;39616;48.872;9.390;2023-03-01T03:44:35;98998.75;;;-1.75;81.17
53719;BME280;39616;48.872;9.390;2023-03-01T03:47:06;98995.31;;;-1.68;81.25
53719;BME280;39616;48.872;9.390;2023-03-01T03:49:36;98995.91;;;-1.66;81.28
53719;BME280;39616;48.872;9.390;2023-03-01T03:52:07;98995.72;;;-1.65;81.06
53719;BME280;39616;48.872;9.390;2023-03-01T03:54:43;98981.63;;;-1.65;81.39
53719;BME280;39616;48.872;9.390;2023-03-01T03:57:13;98978.53;;;-1.62;81.09
53719;BME280;39616;48.872;9.390;2023-03-01T03:59:43;98979.16;;;-1.60;80.96
53719;BME280;39616;48.872;9.390;2023-03-01T04:02:14;98975.88;;;-1.62;81.14
53719;BME280;39616;48.872;9.390;2023-03-01T04:04:51;98973.63;;;-1.59;81.29
53719;BME280;39616;48.872;9.390;2023-03-01T04:07:22;98972.41;;;-1.56;81.20
53719;BME280;39616;48.872;9.390;2023-03-01T04:09:52;98969.34;;;-1.53;81.22
53719;BME280;39616;48.872;9.390;2023-03-01T04:12:22;98968.31;;;-1.52;81.01
53719;BME280;39616;48.872;9.390;2023-03-01T04:14:53;98968.16;;;-1.51;81.67
53719;BME280;39616;48.872;9.390;2023-03-01T04:17:23;98963.25;;;-1.47;81.37
53719;BME280;39616;48.872;9.390;2023-03-01T04:19:53;98967.31;;;-1.44;81.34
53719;BME280;39616;48.872;9.390;2023-03-01T04:22:23;98969.78;;;-1.43;81.53
53719;BME280;39616;48.872;9.390;2023-03-01T04:24:59;98966.28;;;-1.37;81.23
53719;BME280;39616;48.872;9.390;2023-03-01T04:27:36;98954.44;;;-1.34;81.12
53719;BME280;39616;48.872;9.390;2023-03-01T04:30:07;98960.56;;;-1.34;81.17
53719;BME280;39616;48.872;9.390;2023-03-01T04:32:38;98953.41;;;-1.33;81.18
53719;BME280;39616;48.872;9.390;2023-03-01T04:35:09;98970.19;;;-1.33;81.03
53719;BME280;39616;48.872;9.390;2023-03-01T04:37:39;98964.69;;;-1.31;81.13
53719;BME280;39616;48.872;9.390;2023-03-01T04:40:11;98960.38;;;-1.32;80.74
53719;BME280;39616;48.872;9.390;2023-03-01T04:42:46;98970.19;;;-1.33;81.21
53719;BME280;39616;48.872;9.390;2023-03-01T04:45:17;98969.38;;;-1.33;81.10
53719;BME280;39616;48.872;9.390;2023-03-01T04:47:47;98964.88;;;-1.39;81.16
53719;BME280;39616;48.872;9.390;2023-03-01T04:50:18;98969.56;;;-1.41;81.31
53719;BME280;39616;48.872;9.390;2023-03-01T04:52:54;98967.53;;;-1.46;81.07
53719;BME280;39616;48.872;9.390;2023-03-01T04:55:28;98975.28;;;-1.44;81.18
53719;BME280;39616;48.872;9.390;2023-03-01T04:57:59;98968.16;;;-1.51;81.08
53719;BME280;39616;48.872;9.390;2023-03-01T05:00:29;98972.84;;;-1.53;81.43
53719;BME280;39616;48.872;9.390;2023-03-01T05:03:00;98957.91;;;-1.54;81.53
53719;BME280;39616;48.872;9.390;2023-03-01T05:05:33;98965.47;;;-1.57;81.17
53719;BME280;39616;48.872;9.390;2023-03-01T05:08:07;98965.06;;;-1.61;81.11
53719;BME280;39616;48.872;9.390;2023-03-01T05:10:38;98968.50;;;-1.67;81.17
53719;BME280;39616;48.872;9.390;2023-03-01T05:13:08;98963.19;;;-1.67;81.45
53719;BME280;39616;48.872;9.390;2023-03-01T05:15:39;98967.69;;;-1.67;81.52
53719;BME280;39616;48.872;9.390;2023-03-01T05:18:09;98958.91;;;-1.61;81.78
53719;BME280;39616;48.872;9.390;2023-03-01T05:20:41;98964.41;;;-1.63;81.50
53719;BME280;39616;48.872;9.390;2023-03-01T05:23:11;98956.84;;;-1.66;81.71
53719;BME280;39616;48.872;9.390;2023-03-01T05:25:42;98950.53;;;-1.65;81.91
53719;BME280;39616;48.872;9.390;2023-03-01T05:28:12;98953.78;;;-1.63;81.89
53719;BME280;39616;48.872;9.390;2023-03-01T05:30:43;98955.84;;;-1.65;81.71
53719;BME280;39616;48.872;9.390;2023-03-01T05:33:13;98959.09;;;-1.70;81.95
53719;BME280;39616;48.872;9.390;2023-03-01T05:35:45;98963.81;;;-1.65;81.98
53719;BME280;39616;48.872;9.390;2023-03-01T05:38:16;98963.81;;;-1.65;82.31
53719;BME280;39616;48.872;9.390;2023-03-01T05:40:48;98961.56;;;-1.61;82.32
53719;BME280;39616;48.872;9.390;2023-03-01T05:43:18;98951.34;;;-1.51;81.89
53719;BME280;39616;48.872;9.390;2023-03-01T05:45:49;98960.75;;;-1.55;81.99
53719;BME280;39616;48.872;9.390;2023-03-01T05:48:19;98949.50;;;-1.57;82.02
53719;BME280;39616;48.872;9.390;2023-03-01T05:50:51;98949.94;;;-1.54;81.98
53719;BME280;39616;48.872;9.390;2023-03-01T05:53:22;98948.88;;;-1.59;81.48
53719;BME280;39616;48.872;9.390;2023-03-01T05:55:52;98955.25;;;-1.54;81.77
53719;BME280;39616;48.872;9.390;2023-03-01T05:58:23;98956.88;;;-1.53;81.92
53719;BME280;39616;48.872;9.390;2023-03-01T06:00:54;98942.75;;;-1.53;81.84
53719;BME280;39616;48.872;9.390;2023-03-01T06:03:24;98942.75;;;-1.60;81.64
53719;BME280;39616;48.872;9.390;2023-03-01T06:05:58;98952.56;;;-1.60;82.02
53719;BME280;39616;48.872;9.390;2023-03-01T06:08:28;98943.75;;;-1.67;82.15
53719;BME280;39616;48.872;9.390;2023-03-01T06:10:59;98948.47;;;-1.63;82.34
53719;BME280;39616;48.872;9.390;2023-03-01T06:13:29;98949.06;;;-1.67;82.68
53719;BME280;39616;48.872;9.390;2023-03-01T06:15:59;98951.94;;;-1.69;82.77
53719;BME280;39616;48.872;9.390;2023-03-01T06:18:30;98952.56;;;-1.67;82.61
53719;BME280;39616;48.872;9.390;2023-03-01T06:21:00;98944.16;;;-1.84;83.61
53719;BME280;39616;48.872;9.390;2023-03-01T06:23:31;98955.75;;;-1.91;83.69
53719;BME280;39616;48.872;9.390;2023-03-01T06:26:06;98953.94;;;-1.98;84.03
53719;BME280;39616;48.872;9.390;2023-03-01T06:28:37;98956.38;;;-1.96;84.45
53719;BME280;39616;48.872;9.390;2023-03-01T06:31:07;98960.06;;;-1.97;84.41
53719;BME280;39616;48.872;9.390;2023-03-01T06:33:41;98956.19;;;-1.95;84.20
53719;BME280;39616;48.872;9.390;2023-03-01T06:36:11;98959.22;;;-2.04;84.65
53719;BME280;39616;48.872;9.390;2023-03-01T06:38:41;98957.75;;;-2.07;84.25
53719;BME280;39616;48.872;9.390;2023-03-01T06:41:13;98957.59;;;-2.05;84.25
53719;BME280;39616;48.872;9.390;2023-03-01T06:43:43;98957.59;;;-2.05;84.44
53719;BME280;39616;48.872;9.390;2023-03-01T06:46:13;98954.09;;;-2.12;84.39
53719;BME280;39616;48.872;9.390;2023-03-01T06:48:43;98945.06;;;-2.11;84.11
53719;BME280;39616;48.872;9.390;2023-03-01T06:51:14;98953.47;;;-2.08;84.03
53719;BME280;39616;48.872;9.390;2023-03-01T06:53:45;98954.53;;;-2.02;83.95
53719;BME280;39616;48.872;9.390;2023-03-01T06:56:16;98951.28;;;-1.91;83.76
53719;BME280;39616;48.872;9.390;2023-03-01T06:58:46;98953.31;;;-1.93;83.02
53719;BME280;39616;48.872;9.390;2023-03-01T07:01:16;98945.34;;;-1.93;83.13
53719;BME280;39616;48.872;9.390;2023-03-01T07:03:47;98955.59;;;-1.83;82.83
53719;BME280;39616;48.872;9.390;2023-03-01T07:06:17;98950.75;;;-1.47;82.55
53719;BME280;39616;48.872;9.390;2023-03-01T07:08:47;98951.38;;;-1.31;81.29
53719;BME280;39616;48.872;9.390;2023-03-01T07:11:18;98942.56;;;-1.12;80.42
53719;BME280;39616;48.872;9.390;2023-03-01T07:13:48;98937.81;;;-0.83;79.61
53719;BME280;39616;48.872;9.390;2023-03-01T07:16:18;98941.69;;;-0.66;78.25
53719;BME280;39616;48.872;9.390;2023-03-01T07:18:50;98934.69;;;-0.60;76.87
53719;BME280;39616;48.872;9.390;2023-03-01T07:21:20;98942.16;;;-0.31;76.98
53719;BME280;39616;48.872;9.390;2023-03-01T07:23:50;98934.69;;;-0.09;75.78
53719;BME280;39616;48.872;9.390;2023-03-01T07:26:21;98936.31;;;-0.08;75.47
53719;BME280;39616;48.872;9.390;2023-03-01T07:28:51;98932.38;;;0.08;74.50
53719;BME280;39616;48.872;9.390;2023-03-01T07:31:21;98919.41;;;-0.27;74.60
53719;BME280;39616;48.872;9.390;2023-03-01T07:33:52;98926.84;;;-0.42;75.34
53719;BME280;39616;48.872;9.390;2023-03-01T07:36:22;98922.00;;;-0.58;75.29
53719;BME280;39616;48.872;9.390;2023-03-01T07:38:53;98925.81;;;-0.41;75.50
53719;BME280;39616;48.872;9.390;2023-03-01T07:41:25;98926.91;;;-0.04;74.49
53719;BME280;39616;48.872;9.390;2023-03-01T07:43:55;98926.09;;;0.28;73.80
53719;BME280;39616;48.872;9.390;2023-03-01T07:46:26;98925.69;;;0.24;73.38
53719;BME280;39616;48.872;9.390;2023-03-01T07:48:56;98914.56;;;0.34;72.88
53719;BME280;39616;48.872;9.390;2023-03-01T07:51:28;98917.19;;;0.65;72.67
53719;BME280;39616;48.872;9.390;2023-03-01T07:53:58;98915.34;;;0.41;71.40
53719;BME280;39616;48.872;9.390;2023-03-01T07:56:28;98905.38;;;0.55;70.75
53719;BME280;39616;48.872;9.390;2023-03-01T07:58:59;98902.88;;;0.85;70.73
53719;BME280;39616;48.872;9.390;2023-03-01T08:01:29;98894.19;;;0.89;71.00
53719;BME280;39616;48.872;9.390;2023-03-01T08:03:59;98898.03;;;0.75;69.42
53719;BME280;39616;48.872;9.390;2023-03-01T08:06:30;98894.16;;;0.46;70.77
53719;BME280;39616;48.872;9.390;2023-03-01T08:09:01;98902.78;;;0.16;71.47
53719;BME280;39616;48.872;9.390;2023-03-01T08:11:32;98893.06;;;0.22;72.47
53719;BME280;39616;48.872;9.390;2023-03-01T08:14:02;98889.97;;;0.57;70.72
53719;BME280;39616;48.872;9.390;2023-03-01T08:16:33;98887.84;;;1.27;68.25
53719;BME280;39616;48.872;9.390;2023-03-01T08:19:06;98887.59;;;0.92;69.66
53719;BME280;39616;48.872;9.390;2023-03-01T08:21:37;98892.31;;;0.71;69.70
53719;BME280;39616;48.872;9.390;2023-03-01T08:24:08;98890.75;;;1.07;69.42
53719;BME280;39616;48.872;9.390;2023-03-01T08:26:40;98886.78;;;1.65;67.48
53719;BME280;39616;48.872;9.390;2023-03-01T08:29:10;98890.19;;;1.72;66.33
53719;BME280;39616;48.872;9.390;2023-03-01T08:31:41;98883.75;;;1.43;67.45
53719;BME280;39616;48.872;9.390;2023-03-01T08:34:13;98882.34;;;1.77;66.42
53719;BME280;39616;48.872;9.390;2023-03-01T08:36:45;98883.38;;;2.06;64.77
53719;BME280;39616;48.872;9.390;2023-03-01T08:39:17;98885.41;;;2.23;66.19
53719;BME280;39616;48.872;9.390;2023-03-01T08:41:49;98882.69;;;2.64;64.62
53719;BME280;39616;48.872;9.390;2023-03-01T08:44:19;98875.34;;;2.72;63.08
53719;BME280;39616;48.872;9.390;2023-03-01T08:46:51;98865.56;;;3.12;61.71
53719;BME280;39616;48.872;9.390;2023-03-01T08:49:23;98875.72;;;2.87;62.82
53719;BME280;39616;48.872;9.390;2023-03-01T08:51:53;98871.28;;;3.16;62.22
53719;BME280;39616;48.872;9.390;2023-03-01T08:54:24;98866.41;;;3.01;62.47
53719;BME280;39616;48.872;9.390;2023-03-01T08:56:54;98865.69;;;3.18;62.13
53719;BME280;39616;48.872;9.390;2023-03-01T08:59:25;98859.66;;;3.62;60.49
53719;BME280;39616;48.872;9.390;2023-03-01T09:01:56;98849.09;;;4.01;60.72
53719;BME280;39616;48.872;9.390;2023-03-01T09:04:26;98846.88;;;4.44;58.46
53719;BME280;39616;48.872;9.390;2023-03-01T09:06:57;98839.69;;;5.00;56.71
53719;BME280;39616;48.872;9.390;2023-03-01T09:09:27;98837.09;;;5.05;55.35
53719;BME280;39616;48.872;9.390;2023-03-01T09:11:57;98843.59;;;5.31;55.39
53719;BME280;39616;48.872;9.390;2023-03-01T09:14:27;98837.94;;;4.55;55.79
53719;BME280;39616;48.872;9.390;2023-03-01T09:16:58;98835.19;;;5.05;55.25
53719;BME280;39616;48.872;9.390;2023-03-01T09:19:28;98831.03;;;5.37;54.35
53719;BME280;39616;48.872;9.390;2023-03-01T09:21:59;98823.44;;;5.77;53.76
53719;BME280;39616;48.872;9.390;2023-03-01T09:24:29;98814.22;;;5.73;54.17
53719;BME280;39616;48.872;9.390;2023-03-01T09:26:59;98817.22;;;5.28;54.53
53719;BME280;39616;48.872;9.390;2023-03-01T09:29:30;98818.06;;;4.05;56.17
53719;BME280;39616;48.872;9.390;2023-03-01T09:32:01;98813.88;;;4.99;55.19
53719;BME280;39616;48.872;9.390;2023-03-01T09:34:31;98817.66;;;5.64;53.46
53719;BME280;39616;48.872;9.390;2023-03-01T09:37:01;98817.94;;;6.16;52.29
53719;BME280;39616;48.872;9.390;2023-03-01T09:39:32;98807.50;;;6.25;51.82
53719;BME280;39616;48.872;9.390;2023-03-01T09:42:03;98798.53;;;6.46;51.67
53719;BME280;39616;48.872;9.390;2023-03-01T09:45:05;98814.84;;;6.02;52.43
53719;BME280;39616;48.872;9.390;2023-03-01T09:47:36;98811.84;;;6.26;51.33
53719;BME280;39616;48.872;9.390;2023-03-01T09:55:37;98793.03;;;7.16;49.07
53719;BME280;39616;48.872;9.390;2023-03-01T10:04:36;98777.13;;;7.24;49.15
53719;BME280;39616;48.872;9.390;2023-03-01T10:09:57;98768.94;;;7.72;48.06
53719;BME280;39616;48.872;9.390;2023-03-01T10:12:35;98777.13;;;7.19;48.16
53719;BME280;39616;48.872;9.390;2023-03-01T10:15:24;98767.75;;;7.42;48.79
53719;BME280;39616;48.872;9.390;2023-03-01T10:18:03;98766.34;;;6.72;49.64
53719;BME280;39616;48.872;9.390;2023-03-01T10:23:08;98760.03;;;6.98;49.62
53719;BME280;39616;48.872;9.390;2023-03-01T10:29:16;98746.97;;;6.75;50.23
53719;BME280;39616;48.872;9.390;2023-03-01T10:31:27;98740.50;;;6.76;50.05
53719;BME280;39616;48.872;9.390;2023-03-01T10:34:12;98742.47;;;6.86;49.76
53719;BME280;39616;48.872;9.390;2023-03-01T10:36:45;98741.81;;;6.68;49.81
53719;BME280;39616;48.872;9.390;2023-03-01T10:39:20;98733.00;;;6.88;49.91
53719;BME280;39616;48.872;9.390;2023-03-01T10:42:02;98737.28;;;6.79;50.45
53719;BME280;39616;48.872;9.390;2023-03-01T10:44:45;98734.81;;;7.30;49.89
53719;BME280;39616;48.872;9.390;2023-03-01T10:47:19;98733.41;;;6.60;50.17
53719;BME280;39616;48.872;9.390;2023-03-01T10:50:02;98733.00;;;6.88;50.09
53719;BME280;39616;48.872;9.390;2023-03-01T10:52:36;98739.25;;;6.94;50.13
53719;BME280;39616;48.872;9.390;2023-03-01T11:00:55;98716.56;;;7.78;48.12
53719;BME280;39616;48.872;9.390;2023-03-01T11:03:35;98711.19;;;8.04;47.93
53719;BME280;39616;48.872;9.390;2023-03-01T11:08:48;98699.28;;;8.51;46.55
53719;BME280;39616;48.872;9.390;2023-03-01T11:11:22;98696.88;;;8.29;46.62
53719;BME280;39616;48.872;9.390;2023-03-01T11:21:44;98683.34;;;8.23;47.02
53719;BME280;39616;48.872;9.390;2023-03-01T11:24:18;98682.53;;;8.33;47.27
53719;BME280;39616;48.872;9.390;2023-03-01T11:26:52;98676.88;;;8.09;47.81
53719;BME280;39616;48.872;9.390;2023-03-01T11:29:46;98675.50;;;8.17;47.92
53719;BME280;39616;48.872;9.390;2023-03-01T11:32:23;98670.69;;;8.04;47.54
53719;BME280;39616;48.872;9.390;2023-03-01T11:35:03;98668.25;;;7.71;48.64
53719;BME280;39616;48.872;9.390;2023-03-01T11:37:47;98675.22;;;7.42;49.24
53719;BME280;39616;48.872;9.390;2023-03-01T11:40:30;98661.22;;;7.65;48.68
53719;BME280;39616;48.872;9.390;2023-03-01T11:43:26;98662.84;;;7.56;48.88
53719;BME280;39616;48.872;9.390;2023-03-01T11:54:25;98640.88;;;7.01;49.38
53719;BME280;39616;48.872;9.390;2023-03-01T11:57:29;98632.56;;;7.23;50.06
53719;BME280;39616;48.872;9.390;2023-03-01T12:00:32;98626.63;;;7.32;49.13
53719;BME280;39616;48.872;9.390;2023-03-01T12:03:20;98614.25;;;7.71;48.96
53719;BME280;39616;48.872;9.390;2023-03-01T12:06:05;98616.41;;;7.80;48.63
53719;BME280;39616;48.872;9.390;2023-03-01T12:17:54;98595.56;;;8.06;48.03
53719;BME280;39616;48.872;9.390;2023-03-01T12:20:39;98581.00;;;8.02;48.75
53719;BME280;39616;48.872;9.390;2023-03-01T12:23:29;98586.38;;;8.17;48.63
53719;BME280;39616;48.872;9.390;2023-03-01T12:31:36;98575.63;;;8.07;48.38
53719;BME280;39616;48.872;9.390;2023-03-01T12:34:41;98565.88;;;8.01;48.39
53719;BME280;39616;48.872;9.390;2023-03-01T12:48:27;98537.16;;;8.40;47.91
53719;BME280;39616;48.872;9.390;2023-03-01T12:51:06;98535.03;;;8.22;47.75
53719;BME280;39616;48.872;9.390;2023-03-01T12:53:48;98530.66;;;8.31;47.37
53719;BME280;39616;48.872;9.390;2023-03-01T12:56:23;98525.00;;;8.28;47.90
53719;BME280;39616;48.872;9.390;2023-03-01T13:01:53;98514.69;;;7.49;49.94
53719;BME280;39616;48.872;9.390;2023-03-01T13:04:35;98506.06;;;7.37;49.88
53719;BME280;39616;48.872;9.390;2023-03-01T13:07:35;98512.53;;;7.41;49.56
53719;BME280;39616;48.872;9.390;2023-03-01T13:10:32;98518.47;;;7.33;51.35
53719;BME280;39616;48.872;9.390;2023-03-01T13:15:50;98512.00;;;7.24;50.75
53719;BME280;39616;48.872;9.390;2023-03-01T13:20:56;98512.50;;;7.46;50.61
53719;BME280;39616;48.872;9.390;2023-03-01T13:23:31;98507.66;;;7.38;50.77
53719;BME280;39616;48.872;9.390;2023-03-01T13:26:15;98505.22;;;7.47;50.23
53719;BME280;39616;48.872;9.390;2023-03-01T13:33:51;98513.59;;;7.56;50.46
53719;BME280;39616;48.872;9.390;2023-03-01T13:39:00;98508.16;;;7.81;50.15
53719;BME280;39616;48.872;9.390;2023-03-01T13:41:52;98512.22;;;7.73;50.78
53719;BME280;39616;48.872;9.390;2023-03-01T13:46:58;98502.53;;;7.21;51.51
53719;BME280;39616;48.872;9.390;2023-03-01T13:49:40;98506.63;;;7.29;52.20
53719;BME280;39616;48.872;9.390;2023-03-01T13:52:40;98506.34;;;7.31;51.62
53719;BME280;39616;48.872;9.390;2023-03-01T13:57:50;98498.22;;;7.36;51.65
53719;BME280;39616;48.872;9.390;2023-03-01T14:00:44;98510.91;;;7.35;51.08
53719;BME280;39616;48.872;9.390;2023-03-01T14:03:17;98502.81;;;6.99;51.40
53719;BME280;39616;48.872;9.390;2023-03-01T14:06:00;98495.81;;;7.19;51.58
53719;BME280;39616;48.872;9.390;2023-03-01T14:08:30;98496.09;;;7.12;51.42
53719;BME280;39616;48.872;9.390;2023-03-01T14:11:28;98500.94;;;7.05;51.66
53719;BME280;39616;48.872;9.390;2023-03-01T14:19:29;98490.94;;;7.46;51.48
53719;BME280;39616;48.872;9.390;2023-03-01T14:22:11;98496.88;;;7.28;51.50
53719;BME280;39616;48.872;9.390;2023-03-01T14:24:56;98499.03;;;7.36;52.19
53719;BME280;39616;48.872;9.390;2023-03-01T14:27:38;98493.09;;;6.78;52.79
53719;BME280;39616;48.872;9.390;2023-03-01T14:30:19;98502.50;;;6.65;53.30
53719;BME280;39616;48.872;9.390;2023-03-01T14:33:03;98508.94;;;6.49;53.67
53719;BME280;39616;48.872;9.390;2023-03-01T14:35:36;98508.41;;;6.57;54.03
53719;BME280;39616;48.872;9.390;2023-03-01T14:38:20;98513.81;;;6.72;53.91
53719;BME280;39616;48.872;9.390;2023-03-01T14:40:55;98516.25;;;6.64;54.67
53719;BME280;39616;48.872;9.390;2023-03-01T14:43:29;98513.81;;;6.72;53.16
53719;BME280;39616;48.872;9.390;2023-03-01T14:46:00;98517.03;;;6.64;53.22
53719;BME280;39616;48.872;9.390;2023-03-01T14:48:31;98531.84;;;6.57;53.18
53719;BME280;39616;48.872;9.390;2023-03-01T14:51:04;98524.53;;;6.42;53.39
53719;BME280;39616;48.872;9.390;2023-03-01T14:53:36;98529.16;;;6.57;53.78
53719;BME280;39616;48.872;9.390;2023-03-01T14:56:13;98532.16;;;6.70;53.30
53719;BME280;39616;48.872;9.390;2023-03-01T14:58:44;98525.13;;;6.69;53.22
53719;BME280;39616;48.872;9.390;2023-03-01T15:01:15;98525.66;;;6.66;53.34
53719;BME280;39616;48.872;9.390;2023-03-01T15:03:48;98522.44;;;6.64;52.66
53719;BME280;39616;48.872;9.390;2023-03-01T15:06:21;98529.06;;;6.36;53.18
53719;BME280;39616;48.872;9.390;2023-03-01T15:08:53;98519.13;;;6.42;53.41
53719;BME280;39616;48.872;9.390;2023-03-01T15:11:29;98519.97;;;6.52;53.74
53719;BME280;39616;48.872;9.390;2023-03-01T15:14:00;98519.72;;;6.54;53.53
53719;BME280;39616;48.872;9.390;2023-03-01T15:16:32;98525.94;;;6.60;53.08
53719;BME280;39616;48.872;9.390;2023-03-01T15:19:05;98516.22;;;6.59;53.42
53719;BME280;39616;48.872;9.390;2023-03-01T15:21:37;98520.25;;;6.56;53.30
53719;BME280;39616;48.872;9.390;2023-03-01T15:26:43;98515.69;;;6.57;52.88